CPW9 weather

Port Alberni Seaplane Base
British Columbia, Canada

Public forecast

Using degrees Celsius for public forecast. Weather courtesy of forecast.io.

METAR (pilot weather report)

Closest report is Comox Airport, 28.9 nm (53.5 km) N. Retrieved 2019/09/23 04:00 UTC (14 minutes ago):

CYQQ 230400Z 32006KT 20SM FEW060 13/09 A2994 RMK SC2 SLP138

TAF (pilot weather forecast)

Forecast is more than 12 hours old.

Closest forecast is Comox Airport, 28.9 nm (53.5 km) N. Retrieved 2019/09/22 00:42 UTC (1 day ago):

TAF TAF CYQQ 222339Z 2300/2324 34010KT P6SM FEW025 SCT050 FM230600 34005KT P6SM BKN040 BKN220 FM231400 VRB03KT P6SM BKN025 OVC080 FM231600 13010KT P6SM -RA BKN020 OVC050 FM232000 14015G25KT P6SM -RA BKN012 OVC020 RMK NXT FCST BY 230600Z